<?xml version="1.0" encoding="UTF-8"?>
<gpx creator="Wikiloc - https://www.wikiloc.com" version="1.1" xmlns="http://www.topografix.com/GPX/1/1" xmlns:xsi="http://www.w3.org/2001/XMLSchema-instance" xsi:schemaLocation="http://www.topografix.com/GPX/1/1 http://www.topografix.com/GPX/1/1/gpx.xsd">
  <metadata>
    <name>Wikiloc - Mollendaal - La Rosée</name>
    <link href="https://www.wikiloc.com/horseback-riding-trails/mollendaal-la-rosee-62197455">
      <text>Mollendaal - La Rosée on Wikiloc</text>
    </link>
    <time>2020-12-13T14:19:33Z</time>
  </metadata>
  <trk>
    <name>Mollendaal - La Rosée</name>
    <cmt>meerdaalwoud</cmt>
    <desc>meerdaalwoud</desc>
    <trkseg>
      <trkpt lat="50.810087" lon="4.751722">
        <ele>107.224</ele>
        <time>2020-12-13T11:43:18Z</time>
      </trkpt>
      <trkpt lat="50.808848" lon="4.751403">
        <ele>94.604</ele>
        <time>2020-12-13T11:44:37Z</time>
      </trkpt>
      <trkpt lat="50.807613" lon="4.751659">
        <ele>101.014</ele>
        <time>2020-12-13T11:45:14Z</time>
      </trkpt>
      <trkpt lat="50.806882" lon="4.752006">
        <ele>102.408</ele>
        <time>2020-12-13T11:45:38Z</time>
      </trkpt>
      <trkpt lat="50.806631" lon="4.751975">
        <ele>98.528</ele>
        <time>2020-12-13T11:45:46Z</time>
      </trkpt>
      <trkpt lat="50.806029" lon="4.751280">
        <ele>86.354</ele>
        <time>2020-12-13T11:46:14Z</time>
      </trkpt>
      <trkpt lat="50.804954" lon="4.749550">
        <ele>89.283</ele>
        <time>2020-12-13T11:46:39Z</time>
      </trkpt>
      <trkpt lat="50.804600" lon="4.749293">
        <ele>91.931</ele>
        <time>2020-12-13T11:46:59Z</time>
      </trkpt>
      <trkpt lat="50.802250" lon="4.754350">
        <ele>94.639</ele>
        <time>2020-12-13T11:50:18Z</time>
      </trkpt>
      <trkpt lat="50.805282" lon="4.758117">
        <ele>98.026</ele>
        <time>2020-12-13T11:54:27Z</time>
      </trkpt>
      <trkpt lat="50.805012" lon="4.758347">
        <ele>97.387</ele>
        <time>2020-12-13T11:54:44Z</time>
      </trkpt>
      <trkpt lat="50.805213" lon="4.758154">
        <ele>100.117</ele>
        <time>2020-12-13T11:55:07Z</time>
      </trkpt>
      <trkpt lat="50.805368" lon="4.758237">
        <ele>100.215</ele>
        <time>2020-12-13T11:55:17Z</time>
      </trkpt>
      <trkpt lat="50.806609" lon="4.759916">
        <ele>101.465</ele>
        <time>2020-12-13T11:56:25Z</time>
      </trkpt>
      <trkpt lat="50.806647" lon="4.760190">
        <ele>102.511</ele>
        <time>2020-12-13T11:56:31Z</time>
      </trkpt>
      <trkpt lat="50.806071" lon="4.760123">
        <ele>98.608</ele>
        <time>2020-12-13T11:57:02Z</time>
      </trkpt>
      <trkpt lat="50.804995" lon="4.760283">
        <ele>96.337</ele>
        <time>2020-12-13T11:58:10Z</time>
      </trkpt>
      <trkpt lat="50.803975" lon="4.760686">
        <ele>95.383</ele>
        <time>2020-12-13T11:59:14Z</time>
      </trkpt>
      <trkpt lat="50.802390" lon="4.762045">
        <ele>96.792</ele>
        <time>2020-12-13T12:01:12Z</time>
      </trkpt>
      <trkpt lat="50.799876" lon="4.764757">
        <ele>94.360</ele>
        <time>2020-12-13T12:04:33Z</time>
      </trkpt>
      <trkpt lat="50.797432" lon="4.768698">
        <ele>98.548</ele>
        <time>2020-12-13T12:08:24Z</time>
      </trkpt>
      <trkpt lat="50.795649" lon="4.770868">
        <ele>104.345</ele>
        <time>2020-12-13T12:11:00Z</time>
      </trkpt>
      <trkpt lat="50.794581" lon="4.773632">
        <ele>102.176</ele>
        <time>2020-12-13T12:13:17Z</time>
      </trkpt>
      <trkpt lat="50.793127" lon="4.776339">
        <ele>107.996</ele>
        <time>2020-12-13T12:15:20Z</time>
      </trkpt>
      <trkpt lat="50.792066" lon="4.779061">
        <ele>111.639</ele>
        <time>2020-12-13T12:16:07Z</time>
      </trkpt>
      <trkpt lat="50.790784" lon="4.782958">
        <ele>104.401</ele>
        <time>2020-12-13T12:17:06Z</time>
      </trkpt>
      <trkpt lat="50.788743" lon="4.787188">
        <ele>106.921</ele>
        <time>2020-12-13T12:18:45Z</time>
      </trkpt>
      <trkpt lat="50.786258" lon="4.790773">
        <ele>96.808</ele>
        <time>2020-12-13T12:22:24Z</time>
      </trkpt>
      <trkpt lat="50.785767" lon="4.791091">
        <ele>97.399</ele>
        <time>2020-12-13T12:22:56Z</time>
      </trkpt>
      <trkpt lat="50.783856" lon="4.791685">
        <ele>92.495</ele>
        <time>2020-12-13T12:25:03Z</time>
      </trkpt>
      <trkpt lat="50.783780" lon="4.790016">
        <ele>93.084</ele>
        <time>2020-12-13T12:26:03Z</time>
      </trkpt>
      <trkpt lat="50.784188" lon="4.783047">
        <ele>98.862</ele>
        <time>2020-12-13T12:35:26Z</time>
      </trkpt>
      <trkpt lat="50.784113" lon="4.783140">
        <ele>99.090</ele>
        <time>2020-12-13T12:35:52Z</time>
      </trkpt>
      <trkpt lat="50.784156" lon="4.783266">
        <ele>101.287</ele>
        <time>2020-12-13T12:36:15Z</time>
      </trkpt>
      <trkpt lat="50.784398" lon="4.781793">
        <ele>98.288</ele>
        <time>2020-12-13T12:37:27Z</time>
      </trkpt>
      <trkpt lat="50.785003" lon="4.780342">
        <ele>95.548</ele>
        <time>2020-12-13T12:38:42Z</time>
      </trkpt>
      <trkpt lat="50.786788" lon="4.777770">
        <ele>92.759</ele>
        <time>2020-12-13T12:40:35Z</time>
      </trkpt>
      <trkpt lat="50.788261" lon="4.775079">
        <ele>97.503</ele>
        <time>2020-12-13T12:41:53Z</time>
      </trkpt>
      <trkpt lat="50.788775" lon="4.774575">
        <ele>97.823</ele>
        <time>2020-12-13T12:42:32Z</time>
      </trkpt>
      <trkpt lat="50.790338" lon="4.772114">
        <ele>93.708</ele>
        <time>2020-12-13T12:43:57Z</time>
      </trkpt>
      <trkpt lat="50.790580" lon="4.771275">
        <ele>98.751</ele>
        <time>2020-12-13T12:44:06Z</time>
      </trkpt>
      <trkpt lat="50.790645" lon="4.770191">
        <ele>107.137</ele>
        <time>2020-12-13T12:44:16Z</time>
      </trkpt>
      <trkpt lat="50.790591" lon="4.769416">
        <ele>103.536</ele>
        <time>2020-12-13T12:44:40Z</time>
      </trkpt>
      <trkpt lat="50.790464" lon="4.769010">
        <ele>104.954</ele>
        <time>2020-12-13T12:44:58Z</time>
      </trkpt>
      <trkpt lat="50.790313" lon="4.768929">
        <ele>107.272</ele>
        <time>2020-12-13T12:45:17Z</time>
      </trkpt>
      <trkpt lat="50.790603" lon="4.769432">
        <ele>107.759</ele>
        <time>2020-12-13T12:45:34Z</time>
      </trkpt>
      <trkpt lat="50.791193" lon="4.768142">
        <ele>109.030</ele>
        <time>2020-12-13T12:46:36Z</time>
      </trkpt>
      <trkpt lat="50.791631" lon="4.765949">
        <ele>104.870</ele>
        <time>2020-12-13T12:48:20Z</time>
      </trkpt>
      <trkpt lat="50.792876" lon="4.764241">
        <ele>102.987</ele>
        <time>2020-12-13T12:50:15Z</time>
      </trkpt>
      <trkpt lat="50.793607" lon="4.762010">
        <ele>100.042</ele>
        <time>2020-12-13T12:52:04Z</time>
      </trkpt>
      <trkpt lat="50.794181" lon="4.761166">
        <ele>95.326</ele>
        <time>2020-12-13T12:52:59Z</time>
      </trkpt>
      <trkpt lat="50.794876" lon="4.759449">
        <ele>99.108</ele>
        <time>2020-12-13T12:54:31Z</time>
      </trkpt>
      <trkpt lat="50.795174" lon="4.759041">
        <ele>95.214</ele>
        <time>2020-12-13T12:54:59Z</time>
      </trkpt>
      <trkpt lat="50.795136" lon="4.758307">
        <ele>98.520</ele>
        <time>2020-12-13T12:55:30Z</time>
      </trkpt>
      <trkpt lat="50.795397" lon="4.758125">
        <ele>98.549</ele>
        <time>2020-12-13T12:55:49Z</time>
      </trkpt>
      <trkpt lat="50.795459" lon="4.756907">
        <ele>89.047</ele>
        <time>2020-12-13T12:56:34Z</time>
      </trkpt>
      <trkpt lat="50.795296" lon="4.754594">
        <ele>87.475</ele>
        <time>2020-12-13T12:58:13Z</time>
      </trkpt>
      <trkpt lat="50.795577" lon="4.754354">
        <ele>89.642</ele>
        <time>2020-12-13T12:58:42Z</time>
      </trkpt>
      <trkpt lat="50.797630" lon="4.754147">
        <ele>84.943</ele>
        <time>2020-12-13T13:00:57Z</time>
      </trkpt>
      <trkpt lat="50.800175" lon="4.752796">
        <ele>85.893</ele>
        <time>2020-12-13T13:03:44Z</time>
      </trkpt>
      <trkpt lat="50.801383" lon="4.751539">
        <ele>87.584</ele>
        <time>2020-12-13T13:04:44Z</time>
      </trkpt>
      <trkpt lat="50.803478" lon="4.748869">
        <ele>88.207</ele>
        <time>2020-12-13T13:05:55Z</time>
      </trkpt>
      <trkpt lat="50.804420" lon="4.748491">
        <ele>91.317</ele>
        <time>2020-12-13T13:06:51Z</time>
      </trkpt>
      <trkpt lat="50.804676" lon="4.748202">
        <ele>93.608</ele>
        <time>2020-12-13T13:07:13Z</time>
      </trkpt>
      <trkpt lat="50.804985" lon="4.747671">
        <ele>92.664</ele>
        <time>2020-12-13T13:07:41Z</time>
      </trkpt>
      <trkpt lat="50.805543" lon="4.745662">
        <ele>94.940</ele>
        <time>2020-12-13T13:09:08Z</time>
      </trkpt>
      <trkpt lat="50.806343" lon="4.745646">
        <ele>100.469</ele>
        <time>2020-12-13T13:09:57Z</time>
      </trkpt>
      <trkpt lat="50.806476" lon="4.745415">
        <ele>100.857</ele>
        <time>2020-12-13T13:10:09Z</time>
      </trkpt>
      <trkpt lat="50.806297" lon="4.744632">
        <ele>104.465</ele>
        <time>2020-12-13T13:10:40Z</time>
      </trkpt>
      <trkpt lat="50.806412" lon="4.743793">
        <ele>98.412</ele>
        <time>2020-12-13T13:11:21Z</time>
      </trkpt>
      <trkpt lat="50.806184" lon="4.742631">
        <ele>98.453</ele>
        <time>2020-12-13T13:12:06Z</time>
      </trkpt>
      <trkpt lat="50.806298" lon="4.741973">
        <ele>94.093</ele>
        <time>2020-12-13T13:12:34Z</time>
      </trkpt>
      <trkpt lat="50.806159" lon="4.740833">
        <ele>87.018</ele>
        <time>2020-12-13T13:13:12Z</time>
      </trkpt>
      <trkpt lat="50.805396" lon="4.741181">
        <ele>95.898</ele>
        <time>2020-12-13T13:13:53Z</time>
      </trkpt>
      <trkpt lat="50.805425" lon="4.740548">
        <ele>105.017</ele>
        <time>2020-12-13T13:14:22Z</time>
      </trkpt>
      <trkpt lat="50.805246" lon="4.740001">
        <ele>106.708</ele>
        <time>2020-12-13T13:14:52Z</time>
      </trkpt>
      <trkpt lat="50.805302" lon="4.739575">
        <ele>103.117</ele>
        <time>2020-12-13T13:15:18Z</time>
      </trkpt>
      <trkpt lat="50.805158" lon="4.739365">
        <ele>102.363</ele>
        <time>2020-12-13T13:15:28Z</time>
      </trkpt>
      <trkpt lat="50.805201" lon="4.738737">
        <ele>101.622</ele>
        <time>2020-12-13T13:15:55Z</time>
      </trkpt>
      <trkpt lat="50.804996" lon="4.738144">
        <ele>98.310</ele>
        <time>2020-12-13T13:16:15Z</time>
      </trkpt>
      <trkpt lat="50.804969" lon="4.737165">
        <ele>92.458</ele>
        <time>2020-12-13T13:17:02Z</time>
      </trkpt>
      <trkpt lat="50.804691" lon="4.736403">
        <ele>89.015</ele>
        <time>2020-12-13T13:17:33Z</time>
      </trkpt>
      <trkpt lat="50.804769" lon="4.736048">
        <ele>85.526</ele>
        <time>2020-12-13T13:17:51Z</time>
      </trkpt>
      <trkpt lat="50.804411" lon="4.734984">
        <ele>87.246</ele>
        <time>2020-12-13T13:18:30Z</time>
      </trkpt>
      <trkpt lat="50.804419" lon="4.734417">
        <ele>87.877</ele>
        <time>2020-12-13T13:18:58Z</time>
      </trkpt>
      <trkpt lat="50.804152" lon="4.733464">
        <ele>91.661</ele>
        <time>2020-12-13T13:19:37Z</time>
      </trkpt>
      <trkpt lat="50.804428" lon="4.731770">
        <ele>87.027</ele>
        <time>2020-12-13T13:20:56Z</time>
      </trkpt>
      <trkpt lat="50.804045" lon="4.728640">
        <ele>87.208</ele>
        <time>2020-12-13T13:23:04Z</time>
      </trkpt>
      <trkpt lat="50.804021" lon="4.726881">
        <ele>79.383</ele>
        <time>2020-12-13T13:24:13Z</time>
      </trkpt>
      <trkpt lat="50.804166" lon="4.725766">
        <ele>75.049</ele>
        <time>2020-12-13T13:25:06Z</time>
      </trkpt>
      <trkpt lat="50.803146" lon="4.725015">
        <ele>90.438</ele>
        <time>2020-12-13T13:26:09Z</time>
      </trkpt>
      <trkpt lat="50.801784" lon="4.724945">
        <ele>106.156</ele>
        <time>2020-12-13T13:27:38Z</time>
      </trkpt>
      <trkpt lat="50.801369" lon="4.723969">
        <ele>102.014</ele>
        <time>2020-12-13T13:28:24Z</time>
      </trkpt>
      <trkpt lat="50.800888" lon="4.723748">
        <ele>107.291</ele>
        <time>2020-12-13T13:28:56Z</time>
      </trkpt>
      <trkpt lat="50.799595" lon="4.722198">
        <ele>95.092</ele>
        <time>2020-12-13T13:30:39Z</time>
      </trkpt>
      <trkpt lat="50.799528" lon="4.722068">
        <ele>91.382</ele>
        <time>2020-12-13T13:30:45Z</time>
      </trkpt>
      <trkpt lat="50.799729" lon="4.722005">
        <ele>89.284</ele>
        <time>2020-12-13T13:31:43Z</time>
      </trkpt>
      <trkpt lat="50.799065" lon="4.721403">
        <ele>94.907</ele>
        <time>2020-12-13T13:33:03Z</time>
      </trkpt>
      <trkpt lat="50.798386" lon="4.720051">
        <ele>91.017</ele>
        <time>2020-12-13T13:33:45Z</time>
      </trkpt>
      <trkpt lat="50.797271" lon="4.718610">
        <ele>101.808</ele>
        <time>2020-12-13T13:34:49Z</time>
      </trkpt>
      <trkpt lat="50.797601" lon="4.716603">
        <ele>108.154</ele>
        <time>2020-12-13T13:36:01Z</time>
      </trkpt>
      <trkpt lat="50.797935" lon="4.716370">
        <ele>115.230</ele>
        <time>2020-12-13T13:36:33Z</time>
      </trkpt>
      <trkpt lat="50.798897" lon="4.716187">
        <ele>96.169</ele>
        <time>2020-12-13T13:37:45Z</time>
      </trkpt>
      <trkpt lat="50.799331" lon="4.715891">
        <ele>95.367</ele>
        <time>2020-12-13T13:38:09Z</time>
      </trkpt>
      <trkpt lat="50.799798" lon="4.715916">
        <ele>89.375</ele>
        <time>2020-12-13T13:38:39Z</time>
      </trkpt>
      <trkpt lat="50.800040" lon="4.715666">
        <ele>78.552</ele>
        <time>2020-12-13T13:39:46Z</time>
      </trkpt>
      <trkpt lat="50.802275" lon="4.715143">
        <ele>79.423</ele>
        <time>2020-12-13T13:41:52Z</time>
      </trkpt>
      <trkpt lat="50.803075" lon="4.718176">
        <ele>83.053</ele>
        <time>2020-12-13T13:44:02Z</time>
      </trkpt>
      <trkpt lat="50.803179" lon="4.717937">
        <ele>82.339</ele>
        <time>2020-12-13T13:45:26Z</time>
      </trkpt>
      <trkpt lat="50.804478" lon="4.719392">
        <ele>69.201</ele>
        <time>2020-12-13T13:47:06Z</time>
      </trkpt>
      <trkpt lat="50.805035" lon="4.721920">
        <ele>77.621</ele>
        <time>2020-12-13T13:48:58Z</time>
      </trkpt>
      <trkpt lat="50.805015" lon="4.722721">
        <ele>82.108</ele>
        <time>2020-12-13T13:49:31Z</time>
      </trkpt>
      <trkpt lat="50.805578" lon="4.724249">
        <ele>78.089</ele>
        <time>2020-12-13T13:50:48Z</time>
      </trkpt>
      <trkpt lat="50.806494" lon="4.724089">
        <ele>83.435</ele>
        <time>2020-12-13T13:51:43Z</time>
      </trkpt>
      <trkpt lat="50.806647" lon="4.724179">
        <ele>84.274</ele>
        <time>2020-12-13T13:51:51Z</time>
      </trkpt>
      <trkpt lat="50.806679" lon="4.724032">
        <ele>78.862</ele>
        <time>2020-12-13T13:52:19Z</time>
      </trkpt>
      <trkpt lat="50.807028" lon="4.723984">
        <ele>72.820</ele>
        <time>2020-12-13T13:52:43Z</time>
      </trkpt>
      <trkpt lat="50.807435" lon="4.723652">
        <ele>72.987</ele>
        <time>2020-12-13T13:53:17Z</time>
      </trkpt>
      <trkpt lat="50.808039" lon="4.722126">
        <ele>81.558</ele>
        <time>2020-12-13T13:54:31Z</time>
      </trkpt>
      <trkpt lat="50.808405" lon="4.722036">
        <ele>83.798</ele>
        <time>2020-12-13T13:55:01Z</time>
      </trkpt>
      <trkpt lat="50.808621" lon="4.721720">
        <ele>78.856</ele>
        <time>2020-12-13T13:55:17Z</time>
      </trkpt>
      <trkpt lat="50.808909" lon="4.721642">
        <ele>74.259</ele>
        <time>2020-12-13T13:55:35Z</time>
      </trkpt>
      <trkpt lat="50.809563" lon="4.720905">
        <ele>79.314</ele>
        <time>2020-12-13T13:56:26Z</time>
      </trkpt>
      <trkpt lat="50.809985" lon="4.720637">
        <ele>87.008</ele>
        <time>2020-12-13T13:56:58Z</time>
      </trkpt>
      <trkpt lat="50.810497" lon="4.719908">
        <ele>98.311</ele>
        <time>2020-12-13T13:57:47Z</time>
      </trkpt>
      <trkpt lat="50.810638" lon="4.719835">
        <ele>103.837</ele>
        <time>2020-12-13T13:57:57Z</time>
      </trkpt>
      <trkpt lat="50.810748" lon="4.719940">
        <ele>107.746</ele>
        <time>2020-12-13T13:58:13Z</time>
      </trkpt>
      <trkpt lat="50.810755" lon="4.719714">
        <ele>105.324</ele>
        <time>2020-12-13T13:59:09Z</time>
      </trkpt>
      <trkpt lat="50.811210" lon="4.719907">
        <ele>106.192</ele>
        <time>2020-12-13T13:59:44Z</time>
      </trkpt>
      <trkpt lat="50.811867" lon="4.719899">
        <ele>106.449</ele>
        <time>2020-12-13T14:00:31Z</time>
      </trkpt>
      <trkpt lat="50.812396" lon="4.720606">
        <ele>94.690</ele>
        <time>2020-12-13T14:01:16Z</time>
      </trkpt>
      <trkpt lat="50.812808" lon="4.720800">
        <ele>91.990</ele>
        <time>2020-12-13T14:01:39Z</time>
      </trkpt>
      <trkpt lat="50.812860" lon="4.721133">
        <ele>95.325</ele>
        <time>2020-12-13T14:01:56Z</time>
      </trkpt>
      <trkpt lat="50.813091" lon="4.721405">
        <ele>89.426</ele>
        <time>2020-12-13T14:02:20Z</time>
      </trkpt>
      <trkpt lat="50.813949" lon="4.720755">
        <ele>77.408</ele>
        <time>2020-12-13T14:03:15Z</time>
      </trkpt>
      <trkpt lat="50.814612" lon="4.720738">
        <ele>76.108</ele>
        <time>2020-12-13T14:04:04Z</time>
      </trkpt>
      <trkpt lat="50.815269" lon="4.720957">
        <ele>81.378</ele>
        <time>2020-12-13T14:04:46Z</time>
      </trkpt>
      <trkpt lat="50.815457" lon="4.720873">
        <ele>80.364</ele>
        <time>2020-12-13T14:05:00Z</time>
      </trkpt>
      <trkpt lat="50.815202" lon="4.720307">
        <ele>82.553</ele>
        <time>2020-12-13T14:05:22Z</time>
      </trkpt>
      <trkpt lat="50.815094" lon="4.720382">
        <ele>79.591</ele>
        <time>2020-12-13T14:05:48Z</time>
      </trkpt>
      <trkpt lat="50.814897" lon="4.719813">
        <ele>72.849</ele>
        <time>2020-12-13T14:06:09Z</time>
      </trkpt>
      <trkpt lat="50.814983" lon="4.719237">
        <ele>75.596</ele>
        <time>2020-12-13T14:06:30Z</time>
      </trkpt>
      <trkpt lat="50.816415" lon="4.719615">
        <ele>72.987</ele>
        <time>2020-12-13T14:08:57Z</time>
      </trkpt>
      <trkpt lat="50.816638" lon="4.720198">
        <ele>67.697</ele>
        <time>2020-12-13T14:09:32Z</time>
      </trkpt>
      <trkpt lat="50.816464" lon="4.720258">
        <ele>70.827</ele>
        <time>2020-12-13T14:10:31Z</time>
      </trkpt>
      <trkpt lat="50.816283" lon="4.720079">
        <ele>71.968</ele>
        <time>2020-12-13T14:10:47Z</time>
      </trkpt>
      <trkpt lat="50.816660" lon="4.720342">
        <ele>68.614</ele>
        <time>2020-12-13T14:15:03Z</time>
      </trkpt>
      <trkpt lat="50.816663" lon="4.720662">
        <ele>72.108</ele>
        <time>2020-12-13T14:15:19Z</time>
      </trkpt>
      <trkpt lat="50.816913" lon="4.721034">
        <ele>76.528</ele>
        <time>2020-12-13T14:15:43Z</time>
      </trkpt>
      <trkpt lat="50.818251" lon="4.721575">
        <ele>77.944</ele>
        <time>2020-12-13T14:17:10Z</time>
      </trkpt>
      <trkpt lat="50.818402" lon="4.722596">
        <ele>74.913</ele>
        <time>2020-12-13T14:17:54Z</time>
      </trkpt>
      <trkpt lat="50.818415" lon="4.722404">
        <ele>71.441</ele>
        <time>2020-12-13T14:18:07Z</time>
      </trkpt>
      <trkpt lat="50.818281" lon="4.722381">
        <ele>65.799</ele>
        <time>2020-12-13T14:19:33Z</time>
      </trkpt>
    </trkseg>
  </trk></gpx>